createdAt,value
2018-12-21T00:00:25.579Z,39.32
2018-12-21T00:02:32.254Z,39.04
2018-12-21T00:04:38.838Z,38.89
2018-12-21T00:06:45.373Z,39.69
2018-12-21T00:08:51.862Z,40.11
2018-12-21T00:10:58.669Z,39.99
2018-12-21T00:13:05.503Z,39.42
2018-12-21T00:15:12.181Z,39.73
2018-12-21T00:17:18.852Z,39.10
2018-12-21T00:19:25.346Z,39.27
2018-12-21T00:21:32.676Z,39.58
2018-12-21T00:23:39.207Z,39.68
2018-12-21T00:25:46.181Z,39.01
2018-12-21T00:27:53.301Z,39.84
2018-12-21T00:30:00.122Z,38.97
2018-12-21T00:32:11.222Z,39.43
2018-12-21T00:34:22.380Z,39.25
2018-12-21T00:36:33.785Z,39.59
2018-12-21T00:38:44.729Z,39.48
2018-12-21T00:40:56.011Z,39.75
2018-12-21T00:43:06.566Z,40.17
2018-12-21T00:45:18.397Z,38.39
2018-12-21T00:47:24.902Z,40.40
2018-12-21T00:49:31.513Z,39.82
2018-12-21T00:51:38.053Z,40.38
2018-12-21T00:53:44.604Z,40.11
2018-12-21T00:55:51.118Z,39.57
2018-12-21T00:57:57.546Z,39.61
2018-12-21T01:00:04.139Z,40.15
2018-12-21T01:02:10.748Z,39.69
2018-12-21T01:04:17.550Z,39.81
2018-12-21T01:06:24.188Z,39.32
2018-12-21T01:08:30.886Z,39.18
2018-12-21T01:10:37.478Z,39.82
2018-12-21T01:12:43.934Z,40.45
2018-12-21T01:14:50.862Z,40.09
2018-12-21T01:16:57.529Z,39.71
2018-12-21T01:19:04.510Z,40.43
2018-12-21T01:21:11.787Z,40.01
2018-12-21T01:23:18.278Z,39.92
2018-12-21T01:25:24.991Z,39.92
2018-12-21T01:27:32.148Z,40.09
2018-12-21T01:29:38.958Z,40.04
2018-12-21T01:31:45.590Z,39.73
2018-12-21T01:33:52.203Z,39.63
2018-12-21T01:35:58.870Z,40.19
2018-12-21T01:38:05.722Z,40.02
2018-12-21T01:40:12.451Z,39.39
2018-12-21T01:42:19.001Z,39.55
2018-12-21T01:44:25.528Z,39.73
2018-12-21T01:46:32.193Z,39.24
2018-12-21T01:48:38.839Z,38.98
2018-12-21T01:50:45.416Z,39.46
2018-12-21T01:52:52.023Z,40.13
2018-12-21T01:54:58.903Z,39.41
2018-12-21T01:57:05.466Z,39.77
2018-12-21T01:59:12.281Z,39.76
2018-12-21T02:01:19.179Z,40.00
2018-12-21T02:03:25.947Z,39.96
2018-12-21T02:05:32.684Z,39.57
2018-12-21T02:07:39.283Z,40.22
2018-12-21T02:09:46.148Z,39.86
2018-12-21T02:11:53.087Z,39.84
2018-12-21T02:13:59.678Z,39.79
2018-12-21T02:16:06.324Z,39.58
2018-12-21T02:18:12.932Z,40.05
2018-12-21T02:20:19.671Z,40.16
2018-12-21T02:22:26.946Z,39.68
2018-12-21T02:24:33.801Z,39.75
2018-12-21T02:26:41.182Z,39.44
2018-12-21T02:28:47.947Z,40.11
2018-12-21T02:30:55.210Z,39.92
2018-12-21T02:33:01.935Z,39.32
2018-12-21T02:35:08.619Z,39.77
2018-12-21T02:37:15.939Z,40.89
2018-12-21T02:39:22.740Z,39.72
2018-12-21T02:41:29.401Z,38.61
2018-12-21T02:43:35.779Z,40.15
2018-12-21T02:45:42.378Z,39.73
2018-12-21T02:47:49.218Z,38.89
2018-12-21T02:49:55.997Z,40.01
2018-12-21T02:52:05.745Z,39.46
2018-12-21T02:54:11.451Z,38.85
2018-12-21T02:56:18.147Z,40.33
2018-12-21T02:58:24.870Z,38.93
2018-12-21T03:00:31.608Z,40.08
2018-12-21T03:02:38.196Z,39.61
2018-12-21T03:04:44.750Z,40.02
2018-12-21T03:06:52.163Z,39.50
2018-12-21T03:08:59.105Z,40.65
2018-12-21T03:11:06.100Z,39.66
2018-12-21T03:13:13.199Z,39.99
2018-12-21T03:15:19.872Z,39.97
2018-12-21T03:17:26.571Z,40.04
2018-12-21T03:19:33.301Z,38.99
2018-12-21T03:21:40.252Z,39.86
2018-12-21T03:26:00.045Z,40.02
2018-12-21T03:30:45.593Z,38.86
2018-12-21T03:33:06.550Z,39.42
2018-12-21T03:35:20.616Z,38.63
2018-12-21T03:37:27.665Z,40.24
2018-12-21T03:39:49.728Z,39.25
2018-12-21T03:41:58.214Z,39.68
2018-12-21T03:44:10.849Z,40.04
2018-12-21T03:46:21.174Z,39.89
2018-12-21T03:48:29.952Z,38.95
2018-12-21T03:50:40.016Z,39.18
2018-12-21T03:52:53.130Z,39.29
2018-12-21T03:55:00.645Z,39.81
2018-12-21T03:57:07.550Z,40.54
2018-12-21T03:59:14.374Z,40.07
2018-12-21T04:01:21.442Z,39.59
2018-12-21T04:03:28.025Z,40.15
2018-12-21T04:05:34.566Z,40.17
2018-12-21T04:07:40.975Z,40.22
2018-12-21T04:09:47.507Z,39.99
2018-12-21T04:11:54.205Z,39.74
2018-12-21T04:14:00.695Z,39.72
2018-12-21T04:16:07.403Z,39.29
2018-12-21T04:18:14.386Z,40.13
2018-12-21T04:20:21.220Z,39.43
2018-12-21T04:22:33.958Z,39.69
2018-12-21T04:24:36.726Z,39.60
2018-12-21T04:26:43.309Z,39.77
2018-12-21T04:28:49.873Z,39.42
2018-12-21T04:30:57.482Z,39.70
2018-12-21T04:33:04.719Z,39.71
2018-12-21T04:35:11.257Z,40.39
2018-12-21T04:37:17.672Z,39.47
2018-12-21T04:39:24.533Z,39.26
2018-12-21T04:41:31.261Z,39.90
2018-12-21T04:43:37.848Z,38.18
2018-12-21T04:45:44.712Z,39.17
2018-12-21T04:47:51.881Z,39.63
2018-12-21T04:49:58.654Z,38.28
2018-12-21T04:52:05.294Z,39.58
2018-12-21T04:54:11.959Z,38.46
2018-12-21T04:56:18.816Z,39.52
2018-12-21T04:58:25.988Z,38.98
2018-12-21T05:00:32.604Z,38.91
2018-12-21T05:02:39.279Z,39.17
2018-12-21T05:04:46.109Z,39.50
2018-12-21T05:06:53.243Z,38.65
2018-12-21T05:09:00.000Z,39.28
2018-12-21T05:11:06.738Z,39.93
2018-12-21T05:13:13.452Z,39.47
2018-12-21T05:15:19.759Z,39.73
2018-12-21T05:17:26.396Z,38.94
2018-12-21T05:19:33.116Z,39.36
2018-12-21T05:21:39.580Z,39.10
2018-12-21T05:23:46.337Z,39.80
2018-12-21T05:25:53.083Z,39.05
2018-12-21T05:27:59.688Z,39.20
2018-12-21T05:30:06.284Z,39.34
2018-12-21T05:32:13.206Z,38.51
2018-12-21T05:34:19.680Z,39.28
2018-12-21T05:36:26.247Z,39.50
2018-12-21T05:38:32.670Z,38.59
2018-12-21T05:40:39.244Z,38.72
2018-12-21T05:42:45.989Z,39.62
2018-12-21T05:44:52.736Z,38.59
2018-12-21T05:47:00.402Z,38.66
2018-12-21T05:49:07.516Z,38.80
2018-12-21T05:51:14.222Z,39.21
2018-12-21T05:53:21.162Z,39.50
2018-12-21T05:55:27.865Z,39.02
2018-12-21T05:57:34.691Z,39.20
2018-12-21T05:59:41.431Z,38.93
2018-12-21T06:01:47.941Z,39.73
2018-12-21T06:03:54.511Z,39.72
2018-12-21T06:06:01.128Z,39.44
2018-12-21T06:08:07.655Z,38.51
2018-12-21T06:10:14.411Z,39.06
2018-12-21T06:12:20.915Z,39.05
2018-12-21T06:14:27.585Z,39.85
2018-12-21T06:16:34.454Z,39.67
2018-12-21T06:18:41.514Z,38.60
2018-12-21T06:20:48.359Z,38.77
2018-12-21T06:22:55.123Z,38.30
2018-12-21T06:25:01.791Z,39.54
2018-12-21T06:27:08.431Z,39.27
2018-12-21T06:29:15.200Z,39.06
2018-12-21T06:31:21.849Z,39.55
2018-12-21T06:33:28.427Z,39.10
2018-12-21T06:35:34.989Z,39.54
2018-12-21T06:37:41.515Z,38.79
2018-12-21T06:39:48.331Z,39.01
2018-12-21T06:41:54.970Z,38.89
2018-12-21T06:44:01.450Z,39.44
2018-12-21T06:46:14.103Z,39.67
2018-12-21T06:48:17.080Z,38.78
2018-12-21T06:50:23.822Z,38.04
2018-12-21T06:52:30.488Z,38.66
2018-12-21T06:54:37.062Z,37.81
2018-12-21T06:56:44.359Z,38.18
2018-12-21T06:58:51.096Z,36.99
2018-12-21T07:00:57.771Z,36.71
2018-12-21T07:03:04.269Z,37.05
2018-12-21T07:05:10.820Z,37.71
2018-12-21T07:07:17.350Z,38.31
2018-12-21T07:09:23.838Z,37.76
2018-12-21T07:11:30.698Z,38.63
2018-12-21T07:13:37.328Z,38.30
2018-12-21T07:15:43.910Z,38.73
2018-12-21T07:17:50.646Z,38.96
2018-12-21T07:19:57.380Z,38.62
2018-12-21T07:22:04.354Z,37.75
2018-12-21T07:24:17.142Z,37.49
2018-12-21T07:26:24.050Z,38.42
2018-12-21T07:28:30.718Z,37.18
2018-12-21T07:30:37.338Z,36.62
2018-12-21T07:32:44.226Z,36.97
2018-12-21T07:34:50.783Z,38.17
2018-12-21T07:36:57.542Z,37.20
2018-12-21T07:39:04.945Z,37.25
2018-12-21T07:41:11.610Z,37.51
2018-12-21T07:43:18.177Z,37.19
2018-12-21T07:45:24.946Z,37.44
2018-12-21T07:47:32.233Z,37.66
2018-12-21T07:49:38.976Z,37.82
2018-12-21T07:51:45.567Z,38.12
2018-12-21T07:53:52.137Z,38.35
2018-12-21T07:55:59.006Z,38.27
2018-12-21T07:58:05.578Z,38.18
2018-12-21T08:00:13.997Z,38.65
2018-12-21T08:02:20.670Z,38.80
2018-12-21T08:04:27.463Z,38.29
2018-12-21T08:06:34.267Z,38.67
2018-12-21T08:08:40.879Z,38.41
2018-12-21T08:10:47.691Z,38.93
2018-12-21T08:12:54.134Z,38.50
2018-12-21T08:15:01.022Z,38.53
2018-12-21T08:17:07.642Z,38.59
2018-12-21T08:19:14.216Z,39.25
2018-12-21T08:21:20.985Z,39.11
2018-12-21T08:23:28.441Z,38.86
2018-12-21T08:25:35.203Z,38.58
2018-12-21T08:27:42.066Z,37.93
2018-12-21T08:29:48.660Z,37.43
2018-12-21T08:31:55.309Z,37.61
2018-12-21T08:34:02.024Z,37.32
2018-12-21T08:36:08.992Z,37.14
2018-12-21T08:38:15.854Z,38.12
2018-12-21T08:40:22.408Z,38.23
2018-12-21T08:42:29.009Z,38.05
2018-12-21T08:44:35.716Z,37.65
2018-12-21T08:46:42.266Z,37.57
2018-12-21T08:48:48.813Z,38.47
2018-12-21T08:50:55.273Z,37.78
2018-12-21T08:53:01.936Z,38.36
2018-12-21T08:55:08.829Z,38.55
2018-12-21T08:57:15.370Z,39.05
2018-12-21T08:59:22.517Z,38.85
2018-12-21T09:01:29.282Z,38.74
2018-12-21T09:03:36.085Z,38.79
2018-12-21T09:05:42.878Z,38.63
2018-12-21T09:07:49.976Z,39.14
2018-12-21T09:09:56.660Z,38.95
2018-12-21T09:12:03.403Z,39.57
2018-12-21T09:14:10.185Z,38.66
2018-12-21T09:16:16.699Z,39.02
2018-12-21T09:18:23.265Z,39.16
2018-12-21T09:20:30.089Z,38.98
2018-12-21T09:22:36.560Z,39.45
2018-12-21T09:24:43.393Z,39.62
2018-12-21T09:26:49.917Z,38.82
2018-12-21T09:28:56.502Z,38.29
2018-12-21T09:31:03.316Z,38.22
2018-12-21T09:33:09.815Z,38.86
2018-12-21T09:35:16.764Z,38.03
2018-12-21T09:37:23.557Z,38.39
2018-12-21T09:39:30.103Z,37.40
2018-12-21T09:41:36.769Z,36.96
2018-12-21T09:43:43.555Z,38.65
2018-12-21T09:45:50.066Z,38.16
2018-12-21T09:47:56.313Z,38.19
2018-12-21T09:50:02.927Z,38.07
2018-12-21T09:52:09.441Z,37.76
2018-12-21T09:54:15.957Z,38.51
2018-12-21T09:56:22.849Z,38.65
2018-12-21T09:58:29.283Z,38.77
2018-12-21T10:00:36.075Z,38.71
2018-12-21T10:02:43.009Z,39.17
2018-12-21T10:04:49.682Z,39.37
2018-12-21T10:06:56.202Z,39.19
2018-12-21T10:09:03.270Z,39.39
2018-12-21T10:11:09.918Z,39.11
2018-12-21T10:13:16.470Z,39.51
2018-12-21T10:15:23.744Z,39.35
2018-12-21T10:17:30.390Z,39.16
2018-12-21T10:19:36.771Z,38.98
2018-12-21T10:21:43.335Z,39.03
2018-12-21T10:23:49.954Z,39.42
2018-12-21T10:25:56.776Z,39.60
2018-12-21T10:28:03.311Z,39.19
2018-12-21T10:30:11.805Z,39.70
2018-12-21T10:32:18.392Z,39.33
2018-12-21T10:34:24.907Z,39.19
2018-12-21T10:36:31.866Z,37.82
2018-12-21T10:38:38.565Z,38.09
2018-12-21T10:40:45.402Z,37.73
2018-12-21T10:42:51.977Z,37.66
2018-12-21T10:44:58.506Z,37.91
2018-12-21T10:47:05.333Z,37.39
2018-12-21T10:49:11.860Z,36.91
2018-12-21T10:51:18.264Z,36.27
2018-12-21T10:53:25.111Z,36.80
2018-12-21T10:55:31.707Z,36.62
2018-12-21T10:57:38.088Z,36.98
2018-12-21T10:59:44.804Z,36.94
2018-12-21T11:01:51.482Z,37.00
2018-12-21T11:03:58.209Z,36.77
2018-12-21T11:06:04.658Z,37.15
2018-12-21T11:08:11.125Z,37.17
2018-12-21T11:10:17.575Z,36.90
2018-12-21T11:12:24.119Z,36.90
2018-12-21T11:14:30.902Z,36.90
2018-12-21T11:16:37.535Z,37.02
2018-12-21T11:18:44.343Z,37.47
2018-12-21T11:20:50.858Z,37.34
2018-12-21T11:22:57.674Z,37.25
2018-12-21T11:25:04.350Z,37.61
2018-12-21T11:27:11.076Z,37.15
2018-12-21T11:29:18.004Z,37.46
2018-12-21T11:31:24.715Z,37.74
2018-12-21T11:33:31.411Z,37.14
2018-12-21T11:35:38.128Z,37.23
2018-12-21T11:37:44.578Z,37.44
2018-12-21T11:39:50.922Z,36.81
2018-12-21T11:41:57.429Z,37.20
2018-12-21T11:44:03.871Z,36.52
2018-12-21T11:46:10.549Z,36.98
2018-12-21T11:48:17.258Z,36.61
2018-12-21T11:50:23.919Z,36.07
2018-12-21T11:52:30.538Z,36.15
2018-12-21T11:54:44.162Z,36.09
2018-12-21T11:56:45.906Z,35.42
2018-12-21T11:58:52.699Z,36.08
2018-12-21T12:00:59.180Z,35.34
2018-12-21T12:03:05.902Z,34.88
2018-12-21T12:05:12.676Z,34.80
2018-12-21T12:07:19.327Z,34.79
2018-12-21T12:09:25.795Z,35.24
2018-12-21T12:11:32.422Z,34.89
2018-12-21T12:13:39.080Z,35.39
2018-12-21T12:15:45.682Z,35.16
2018-12-21T12:17:52.409Z,35.80
2018-12-21T12:19:58.994Z,35.93
2018-12-21T12:22:05.634Z,35.50
2018-12-21T12:24:12.298Z,36.27
2018-12-21T12:26:18.831Z,36.03
2018-12-21T12:28:25.565Z,36.41
2018-12-21T12:30:32.120Z,36.25
2018-12-21T12:32:38.489Z,36.05
2018-12-21T12:34:45.331Z,35.93
2018-12-21T12:39:13.250Z,35.95
2018-12-21T12:41:20.564Z,35.64
2018-12-21T12:43:27.335Z,35.11
2018-12-21T12:45:33.925Z,35.32
2018-12-21T12:47:40.213Z,35.21
2018-12-21T12:49:46.898Z,34.71
2018-12-21T12:51:53.513Z,35.24
2018-12-21T12:54:00.036Z,34.12
2018-12-21T12:56:06.598Z,34.15
2018-12-21T12:58:14.513Z,35.09
2018-12-21T13:00:21.466Z,34.90
2018-12-21T13:02:28.066Z,34.04
2018-12-21T13:04:34.587Z,34.14
2018-12-21T13:06:41.428Z,34.45
2018-12-21T13:08:47.979Z,34.82
2018-12-21T13:10:54.465Z,33.83
2018-12-21T13:13:01.905Z,34.02
2018-12-21T13:15:10.858Z,34.49
2018-12-21T13:17:17.767Z,34.40
2018-12-21T13:19:24.598Z,33.84
2018-12-21T13:21:31.206Z,34.03
2018-12-21T13:23:37.648Z,34.70
2018-12-21T13:25:44.420Z,34.93
2018-12-21T13:27:51.114Z,35.08
2018-12-21T13:29:57.760Z,35.21
2018-12-21T13:32:04.252Z,34.84
2018-12-21T13:34:10.713Z,35.46
2018-12-21T13:36:17.366Z,35.31
2018-12-21T13:38:24.241Z,35.14
2018-12-21T13:40:30.777Z,35.54
2018-12-21T13:42:37.266Z,34.91
2018-12-21T13:44:43.949Z,35.34
2018-12-21T13:46:50.640Z,34.83
2018-12-21T13:48:57.327Z,34.39
2018-12-21T13:51:04.085Z,34.09
2018-12-21T13:53:10.858Z,34.23
2018-12-21T13:55:20.466Z,34.19
2018-12-21T13:57:26.153Z,35.50
2018-12-21T13:59:32.910Z,34.50
2018-12-21T14:01:39.667Z,35.32
2018-12-21T14:03:46.487Z,36.33
2018-12-21T14:05:53.236Z,36.89
2018-12-21T14:07:59.760Z,36.90
2018-12-21T14:10:07.895Z,37.15
2018-12-21T14:12:14.452Z,36.97
2018-12-21T14:14:21.241Z,37.49
2018-12-21T14:16:28.206Z,37.86
2018-12-21T14:18:35.270Z,38.18
2018-12-21T14:20:42.069Z,37.78
2018-12-21T14:22:48.804Z,37.62
2018-12-21T14:24:55.960Z,37.34
2018-12-21T14:27:02.607Z,37.92
2018-12-21T14:29:09.298Z,37.98
2018-12-21T14:31:16.394Z,37.66
2018-12-21T14:33:23.202Z,37.60
2018-12-21T14:35:29.379Z,37.77
2018-12-21T14:37:35.814Z,37.44
2018-12-21T14:39:42.363Z,37.01
2018-12-21T14:41:49.153Z,37.42
2018-12-21T14:43:55.900Z,35.89
2018-12-21T14:46:02.724Z,36.07
2018-12-21T14:48:09.580Z,36.08
2018-12-21T14:50:16.558Z,35.94
2018-12-21T14:52:23.103Z,35.61
2018-12-21T14:54:29.746Z,36.08
2018-12-21T14:56:36.410Z,36.88
2018-12-21T14:58:43.015Z,36.96
2018-12-21T15:00:50.316Z,36.92
2018-12-21T15:02:57.173Z,37.23
2018-12-21T15:05:04.289Z,36.62
2018-12-21T15:07:11.257Z,36.81
2018-12-21T15:09:18.485Z,37.18
2018-12-21T15:11:25.386Z,36.80
2018-12-21T15:13:32.189Z,38.00
2018-12-21T15:15:39.105Z,37.07
2018-12-21T15:17:45.646Z,36.98
2018-12-21T15:19:52.334Z,37.48
2018-12-21T15:21:58.987Z,37.19
2018-12-21T15:24:05.816Z,37.76
2018-12-21T15:26:12.911Z,37.96
2018-12-21T15:28:19.622Z,37.56
2018-12-21T15:30:26.183Z,38.34
2018-12-21T15:32:32.990Z,37.54
2018-12-21T15:34:39.578Z,37.74
2018-12-21T15:36:46.650Z,37.76
2018-12-21T15:38:54.082Z,37.57
2018-12-21T15:41:01.071Z,37.45
2018-12-21T15:43:08.058Z,37.14
2018-12-21T15:45:14.980Z,36.45
2018-12-21T15:47:22.113Z,35.96
2018-12-21T15:49:28.844Z,37.07
2018-12-21T15:51:35.761Z,36.35
2018-12-21T15:53:41.939Z,37.16
2018-12-21T15:55:54.796Z,36.87
2018-12-21T15:57:57.299Z,36.66
2018-12-21T16:00:04.060Z,36.94
2018-12-21T16:02:10.797Z,36.98
2018-12-21T16:04:17.666Z,36.63
2018-12-21T16:06:24.995Z,37.22
2018-12-21T16:08:32.074Z,37.28
2018-12-21T16:10:38.906Z,37.56
2018-12-21T16:12:45.931Z,37.33
2018-12-21T16:14:52.849Z,38.05
2018-12-21T16:16:59.724Z,37.58
2018-12-21T16:19:06.373Z,37.99
2018-12-21T16:21:12.884Z,37.94
2018-12-21T16:23:19.936Z,38.20
2018-12-21T16:25:27.234Z,37.85
2018-12-21T16:27:34.151Z,38.01
2018-12-21T16:29:41.191Z,37.34
2018-12-21T16:31:48.761Z,38.05
2018-12-21T16:33:56.219Z,37.80
2018-12-21T16:36:04.202Z,37.52
2018-12-21T16:38:11.447Z,36.67
2018-12-21T16:40:18.192Z,37.24
2018-12-21T16:42:26.968Z,36.70
2018-12-21T16:44:33.588Z,36.15
2018-12-21T16:46:40.848Z,36.50
2018-12-21T16:48:47.882Z,37.23
2018-12-21T16:50:55.212Z,37.07
2018-12-21T16:53:01.943Z,37.58
2018-12-21T16:55:09.893Z,36.87
2018-12-21T16:57:17.207Z,37.23
2018-12-21T16:59:24.372Z,37.82
2018-12-21T17:01:31.684Z,37.73
2018-12-21T17:03:38.243Z,37.49
2018-12-21T17:05:44.726Z,37.54
2018-12-21T17:07:51.737Z,37.87
2018-12-21T17:09:58.473Z,37.92
2018-12-21T17:12:05.237Z,37.58
2018-12-21T17:14:12.148Z,37.23
2018-12-21T17:16:18.892Z,37.72
2018-12-21T17:18:27.455Z,37.95
2018-12-21T17:20:34.205Z,37.64
2018-12-21T17:22:41.048Z,37.96
2018-12-21T17:24:47.813Z,37.74
2018-12-21T17:26:55.177Z,37.60
2018-12-21T17:29:01.968Z,37.77
2018-12-21T17:31:08.882Z,37.72
2018-12-21T17:33:16.077Z,37.75
2018-12-21T17:35:23.066Z,37.89
2018-12-21T17:37:29.871Z,37.50
2018-12-21T17:39:36.639Z,37.25
2018-12-21T17:41:43.305Z,37.22
2018-12-21T17:43:49.958Z,37.17
2018-12-21T17:45:56.724Z,37.89
2018-12-21T17:48:03.914Z,37.56
2018-12-21T17:50:12.206Z,37.59
2018-12-21T17:52:18.942Z,37.34
2018-12-21T17:54:25.989Z,36.91
2018-12-21T17:56:34.603Z,37.46
2018-12-21T17:58:41.670Z,37.15
2018-12-21T18:00:48.265Z,37.19
2018-12-21T18:02:57.656Z,37.11
2018-12-21T18:05:04.555Z,37.14
2018-12-21T18:07:11.440Z,37.42
2018-12-21T18:09:18.144Z,37.31
2018-12-21T18:11:25.089Z,37.40
2018-12-21T18:13:31.700Z,37.58
2018-12-21T18:15:38.722Z,36.73
2018-12-21T18:17:45.473Z,36.49
2018-12-21T18:19:52.240Z,36.39
2018-12-21T18:22:07.435Z,37.04
2018-12-21T18:24:14.168Z,36.38
2018-12-21T18:26:20.895Z,36.79
2018-12-21T18:28:29.958Z,35.88
2018-12-21T18:30:43.783Z,35.89
2018-12-21T18:32:50.476Z,36.30
2018-12-21T18:34:59.570Z,36.08
2018-12-21T18:37:08.538Z,35.07
2018-12-21T18:39:15.151Z,35.23
2018-12-21T18:41:22.072Z,35.20
2018-12-21T18:43:29.205Z,35.52
2018-12-21T18:45:36.116Z,35.21
2018-12-21T18:47:42.586Z,37.10
2018-12-21T18:49:49.274Z,35.57
2018-12-21T18:51:56.033Z,36.00
2018-12-21T18:54:12.528Z,35.47
2018-12-21T18:56:23.318Z,36.53
2018-12-21T18:58:30.380Z,35.72
2018-12-21T19:00:36.921Z,37.12
2018-12-21T19:02:43.458Z,36.74
2018-12-21T19:04:50.111Z,35.89
2018-12-21T19:06:56.854Z,36.37
2018-12-21T19:09:03.498Z,36.93
2018-12-21T19:11:10.264Z,36.13
2018-12-21T19:13:17.017Z,35.91
2018-12-21T19:15:23.884Z,35.02
2018-12-21T19:17:54.644Z,35.76
2018-12-21T19:20:01.404Z,35.61
2018-12-21T19:22:08.127Z,36.76
2018-12-21T19:24:15.128Z,36.91
2018-12-21T19:26:21.872Z,36.78
2018-12-21T19:28:29.313Z,35.73
2018-12-21T19:30:36.168Z,36.31
2018-12-21T19:32:44.414Z,36.12
2018-12-21T19:34:50.992Z,36.08
2018-12-21T19:36:57.749Z,36.38
2018-12-21T19:39:05.237Z,36.21
2018-12-21T19:41:12.235Z,36.95
2018-12-21T19:43:27.985Z,36.57
2018-12-21T19:45:28.001Z,36.21
2018-12-21T19:47:34.645Z,37.17
2018-12-21T19:49:41.570Z,36.23
2018-12-21T19:51:48.218Z,36.37
2018-12-21T19:53:54.733Z,36.51
2018-12-21T19:57:26.650Z,36.28
2018-12-21T19:59:33.337Z,36.42
2018-12-21T20:01:39.871Z,35.84
2018-12-21T20:03:46.394Z,35.99
2018-12-21T20:05:53.237Z,36.26
2018-12-21T20:08:00.596Z,39.50
2018-12-21T20:10:08.108Z,36.24
2018-12-21T20:12:14.798Z,36.14
2018-12-21T20:14:21.757Z,36.29
2018-12-21T20:16:28.716Z,36.29
2018-12-21T20:18:35.490Z,36.55
2018-12-21T20:20:42.286Z,36.11
2018-12-21T20:22:48.958Z,36.84
2018-12-21T20:24:56.431Z,36.74
2018-12-21T20:27:15.172Z,36.21
2018-12-21T20:29:25.889Z,37.05
2018-12-21T20:31:32.934Z,36.74
2018-12-21T20:33:41.210Z,36.30
2018-12-21T20:35:48.176Z,37.02
2018-12-21T20:37:55.019Z,36.00
2018-12-21T20:40:02.033Z,35.96
2018-12-21T20:42:17.278Z,35.99
2018-12-21T20:44:23.951Z,35.62
2018-12-21T20:46:32.597Z,35.75
2018-12-21T20:48:39.608Z,36.51
2018-12-21T20:50:46.326Z,35.32
2018-12-21T20:52:53.243Z,37.05
2018-12-21T20:55:02.207Z,36.32
2018-12-21T20:57:11.001Z,36.24
2018-12-21T20:59:21.389Z,36.35
2018-12-21T21:01:28.253Z,35.74
2018-12-21T21:03:35.079Z,36.46
2018-12-21T21:05:44.007Z,36.27
2018-12-21T21:07:50.935Z,36.28
2018-12-21T21:10:13.005Z,36.36
2018-12-21T21:12:23.198Z,36.57
2018-12-21T21:14:38.874Z,36.47
2018-12-21T21:16:45.934Z,36.22
2018-12-21T21:18:53.132Z,35.53
2018-12-21T21:21:10.304Z,35.25
2018-12-21T21:23:30.582Z,35.34
2018-12-21T21:25:46.393Z,34.79
2018-12-21T21:27:53.032Z,34.32
2018-12-21T21:30:05.344Z,34.71
2018-12-21T21:32:18.969Z,35.17
2018-12-21T21:34:35.374Z,34.98
2018-12-21T21:36:42.606Z,34.69
2018-12-21T21:38:49.274Z,35.61
2018-12-21T21:40:56.138Z,35.39
2018-12-21T21:43:10.425Z,35.40
2018-12-21T21:48:09.147Z,35.96
2018-12-21T21:50:16.032Z,35.57
2018-12-21T21:52:22.597Z,36.33
2018-12-21T21:54:29.384Z,36.18
2018-12-21T21:56:36.154Z,36.60
2018-12-21T21:58:45.030Z,35.98
2018-12-21T22:01:00.892Z,35.63
2018-12-21T22:03:21.409Z,35.52
2018-12-21T22:05:44.300Z,34.88
2018-12-21T22:07:51.163Z,35.86
2018-12-21T22:09:58.050Z,35.04
2018-12-21T22:12:04.506Z,34.74
2018-12-21T22:14:11.077Z,35.51
2018-12-21T22:16:17.927Z,36.51
2018-12-21T22:18:24.615Z,35.49
2018-12-21T22:20:31.171Z,36.07
2018-12-21T22:22:37.733Z,36.09
2018-12-21T22:24:44.327Z,36.14
2018-12-21T22:26:51.054Z,35.76
2018-12-21T22:28:57.766Z,36.32
2018-12-21T22:31:04.330Z,35.71
2018-12-21T22:33:17.688Z,35.52
2018-12-21T22:35:34.701Z,35.64
2018-12-21T22:37:41.381Z,36.10
2018-12-21T22:42:45.174Z,37.37
2018-12-21T22:45:03.022Z,36.06
2018-12-21T22:49:44.194Z,35.96
2018-12-21T22:51:50.990Z,36.37
2018-12-21T22:53:57.775Z,36.80
2018-12-21T22:56:04.991Z,36.30
2018-12-21T22:58:11.548Z,36.28
2018-12-21T23:00:29.718Z,36.32
2018-12-21T23:02:45.522Z,35.76
2018-12-21T23:05:06.177Z,36.18
2018-12-21T23:07:20.994Z,35.50
2018-12-21T23:09:27.835Z,36.32
2018-12-21T23:11:34.861Z,35.79
2018-12-21T23:13:41.779Z,35.20
2018-12-21T23:15:48.883Z,35.74
2018-12-21T23:17:55.628Z,35.80
2018-12-21T23:20:02.255Z,36.31
2018-12-21T23:22:09.074Z,35.54
2018-12-21T23:24:17.562Z,36.77
2018-12-21T23:26:26.511Z,36.38
2018-12-21T23:28:40.893Z,36.69
2018-12-21T23:30:52.684Z,36.69
2018-12-21T23:33:10.970Z,36.34
2018-12-21T23:35:34.263Z,36.76
2018-12-21T23:37:40.969Z,36.50
2018-12-21T23:42:29.244Z,35.46
2018-12-21T23:44:46.385Z,35.76
2018-12-21T23:46:53.719Z,35.86
2018-12-21T23:49:00.454Z,36.41
2018-12-21T23:51:13.089Z,36.63
2018-12-21T23:53:25.365Z,35.90
2018-12-21T23:55:31.964Z,35.89
2018-12-21T23:57:38.457Z,37.40
2018-12-21T23:59:45.082Z,36.81
